createdAt,value
2022-11-29T00:00:41.590Z,96990.66
2022-11-29T00:01:43.516Z,96994.56
2022-11-29T00:02:45.262Z,96986.41
2022-11-29T00:03:46.908Z,96995.75
2022-11-29T00:04:48.519Z,96998.88
2022-11-29T00:05:51.598Z,96997.34
2022-11-29T00:06:53.100Z,96999.47
2022-11-29T00:07:54.714Z,96994.50
2022-11-29T00:08:59.068Z,96999.09
2022-11-29T00:10:00.699Z,97004.47
2022-11-29T00:11:11.358Z,96997.03
2022-11-29T00:12:12.898Z,96995.97
2022-11-29T00:13:14.767Z,96995.91
2022-11-29T00:14:18.704Z,96988.03
2022-11-29T00:15:20.307Z,96998.38
2022-11-29T00:16:21.938Z,96999.41
2022-11-29T00:17:23.538Z,96999.88
2022-11-29T00:18:25.098Z,96992.97
2022-11-29T00:19:26.646Z,96994.81
2022-11-29T00:20:28.193Z,96997.59
2022-11-29T00:21:29.841Z,96999.25
2022-11-29T00:22:31.358Z,97006.69
2022-11-29T00:23:33.034Z,97004.06
2022-11-29T00:24:34.778Z,96999.25
2022-11-29T00:25:38.601Z,96999.25
2022-11-29T00:26:40.281Z,97006.53
2022-11-29T00:27:41.825Z,97003.63
2022-11-29T00:28:43.362Z,97011.50
2022-11-29T00:29:44.919Z,97007.25
2022-11-29T00:30:47.318Z,97009.44
2022-11-29T00:31:49.103Z,97007.94
2022-11-29T00:32:50.705Z,97010.38
2022-11-29T00:33:52.630Z,97011.44
2022-11-29T00:34:56.397Z,97008.56
2022-11-29T00:36:01.598Z,97005.41
2022-11-29T00:37:03.277Z,97010.69
2022-11-29T00:38:04.837Z,97003.28
2022-11-29T00:39:07.223Z,97010.13
2022-11-29T00:40:09.121Z,97006.69
2022-11-29T00:41:11.714Z,97012.22
2022-11-29T00:42:13.365Z,97003.28
2022-11-29T00:43:14.990Z,97008.56
2022-11-29T00:44:20.215Z,97004.84
2022-11-29T00:45:22.234Z,97002.19
2022-11-29T00:46:25.157Z,97011.94
2022-11-29T00:47:26.860Z,97006.16
2022-11-29T00:48:28.561Z,97002.22
2022-11-29T00:49:30.097Z,97006.75
2022-11-29T00:50:31.679Z,97016.53
2022-11-29T00:51:33.407Z,97012.34
2022-11-29T00:52:35.161Z,97015.50
2022-11-29T00:53:37.848Z,97002.81
2022-11-29T00:54:39.398Z,97012.31
2022-11-29T00:55:41.045Z,97008.63
2022-11-29T00:56:42.987Z,97008.09
2022-11-29T00:57:44.539Z,97003.31
2022-11-29T00:58:46.228Z,97010.97
2022-11-29T00:59:47.793Z,97010.19
2022-11-29T01:00:49.753Z,97012.34
2022-11-29T01:01:51.374Z,97001.50
2022-11-29T01:02:53.016Z,97000.69
2022-11-29T01:03:54.664Z,97002.28
2022-11-29T01:04:56.232Z,97001.22
2022-11-29T01:06:09.974Z,96989.06
2022-11-29T01:07:11.611Z,96999.09
2022-11-29T01:08:14.353Z,96997.53
2022-11-29T01:09:15.889Z,96996.97
2022-11-29T01:10:17.522Z,96994.34
2022-11-29T01:11:22.341Z,96996.97
2022-11-29T01:12:23.921Z,96991.72
2022-11-29T01:13:25.468Z,96998.31
2022-11-29T01:14:27.067Z,96988.78
2022-11-29T01:15:28.888Z,96992.25
2022-11-29T01:16:31.668Z,96991.44
2022-11-29T01:17:36.877Z,96985.34
2022-11-29T01:18:39.109Z,96982.66
2022-11-29T01:19:40.935Z,96982.31
2022-11-29T01:20:43.961Z,96982.53
2022-11-29T01:21:45.525Z,96986.47
2022-11-29T01:22:47.135Z,96988.75
2022-11-29T01:23:50.321Z,96985.53
2022-11-29T01:24:51.961Z,96989.19
2022-11-29T01:26:02.187Z,96988.09
2022-11-29T01:27:03.706Z,96986.44
2022-11-29T01:28:05.297Z,96987.97
2022-11-29T01:29:06.945Z,96985.53
2022-11-29T01:30:10.163Z,96983.16
2022-11-29T01:31:15.555Z,96979.88
2022-11-29T01:32:17.296Z,96969.78
2022-11-29T01:33:18.999Z,96968.44
2022-11-29T01:34:20.527Z,96975.31
2022-11-29T01:35:22.042Z,96978.69
2022-11-29T01:36:24.787Z,96973.84
2022-11-29T01:37:29.108Z,96982.00
2022-11-29T01:38:31.115Z,96978.50
2022-11-29T01:39:32.644Z,96971.59
2022-11-29T01:40:34.237Z,96977.94
2022-11-29T01:41:37.778Z,96975.59
2022-11-29T01:42:39.308Z,96981.13
2022-11-29T01:44:07.049Z,96974.97
2022-11-29T01:45:28.973Z,96980.53
2022-11-29T01:46:33.373Z,96973.13
2022-11-29T01:47:40.975Z,96972.53
2022-11-29T01:48:42.542Z,96974.34
2022-11-29T01:49:49.923Z,96976.13
2022-11-29T01:50:54.627Z,96977.53
2022-11-29T01:52:02.438Z,96975.31
2022-11-29T01:53:04.798Z,96976.19
2022-11-29T01:54:08.685Z,96970.63
2022-11-29T01:55:10.499Z,96975.25
2022-11-29T01:56:14.426Z,96975.78
2022-11-29T01:57:16.591Z,96979.03
2022-11-29T01:58:18.352Z,96970.03
2022-11-29T01:59:23.379Z,96968.91
2022-11-29T02:00:25.074Z,96972.31
2022-11-29T02:01:26.738Z,96966.00
2022-11-29T02:02:35.923Z,96967.66
2022-11-29T02:03:37.677Z,96967.94
2022-11-29T02:04:42.390Z,96967.94
2022-11-29T02:05:54.975Z,96968.19
2022-11-29T02:06:56.469Z,96967.91
2022-11-29T02:08:00.398Z,96968.44
2022-11-29T02:09:02.613Z,96965.75
2022-11-29T02:10:05.900Z,96967.88
2022-11-29T02:11:35.682Z,96970.50
2022-11-29T02:12:50.289Z,96960.97
2022-11-29T02:14:10.745Z,96966.78
2022-11-29T02:15:45.475Z,96962.69
2022-11-29T02:17:14.709Z,96977.59
2022-11-29T02:18:48.677Z,96969.34
2022-11-29T02:20:08.978Z,96970.63
2022-11-29T02:21:20.002Z,96971.63
2022-11-29T02:22:43.475Z,96978.47
2022-11-29T02:23:45.007Z,96979.50
2022-11-29T02:25:11.825Z,96976.81
2022-11-29T02:26:31.870Z,96981.31
2022-11-29T02:27:55.300Z,96979.50
2022-11-29T02:29:05.740Z,96987.47
2022-11-29T02:30:38.984Z,96983.19
2022-11-29T02:32:04.268Z,96989.47
2022-11-29T02:33:12.095Z,96987.66
2022-11-29T02:34:39.865Z,96979.44
2022-11-29T02:36:09.534Z,96983.53
2022-11-29T02:37:46.326Z,96984.91
2022-11-29T02:39:15.674Z,96990.28
2022-11-29T02:40:28.522Z,96992.59
2022-11-29T02:41:33.107Z,96991.72
2022-11-29T02:42:55.648Z,96992.47
2022-11-29T02:44:26.005Z,96998.00
2022-11-29T02:45:36.797Z,96995.63
2022-11-29T02:47:01.251Z,96999.41
2022-11-29T02:48:11.541Z,96993.44
2022-11-29T02:49:28.207Z,96998.19
2022-11-29T02:50:29.689Z,97001.84
2022-11-29T02:51:42.482Z,96995.25
2022-11-29T02:52:59.875Z,96998.22
2022-11-29T02:54:26.509Z,97006.19
2022-11-29T02:55:38.450Z,97011.50
2022-11-29T02:56:46.719Z,97005.16
2022-11-29T02:58:17.469Z,97013.09
2022-11-29T02:59:37.190Z,97015.22
2022-11-29T03:00:47.095Z,97014.63
2022-11-29T03:02:27.581Z,97010.28
2022-11-29T03:03:43.608Z,97005.94
2022-11-29T03:05:14.062Z,97008.78
2022-11-29T03:06:31.007Z,97011.34
2022-11-29T03:07:56.108Z,97015.84
2022-11-29T03:09:09.558Z,97014.81
2022-11-29T03:10:33.769Z,97010.50
2022-11-29T03:11:51.034Z,97021.50
2022-11-29T03:12:54.454Z,97013.53
2022-11-29T03:14:13.246Z,97010.38
2022-11-29T03:15:30.313Z,97011.53
2022-11-29T03:16:59.424Z,97006.50
2022-11-29T03:18:06.825Z,97004.69
2022-11-29T03:19:29.746Z,97009.69
2022-11-29T03:21:01.650Z,97005.41
2022-11-29T03:22:12.407Z,97009.03
2022-11-29T03:23:17.716Z,97012.13
2022-11-29T03:24:46.548Z,97006.19
2022-11-29T03:26:21.064Z,97007.13
2022-11-29T03:27:43.685Z,97008.13
2022-11-29T03:29:07.149Z,97010.19
2022-11-29T03:30:12.555Z,96997.97
2022-11-29T03:31:21.602Z,96996.84
2022-11-29T03:32:34.606Z,96992.56
2022-11-29T03:33:50.847Z,96994.72
2022-11-29T03:35:28.281Z,97001.56
2022-11-29T03:36:41.193Z,96994.53
2022-11-29T03:37:51.955Z,96995.59
2022-11-29T03:38:58.619Z,96999.03
2022-11-29T03:40:09.803Z,96994.22
2022-11-29T03:41:28.323Z,97001.94
2022-11-29T03:42:45.485Z,97007.56
2022-11-29T03:44:07.211Z,97001.81
2022-11-29T03:45:18.725Z,96997.00
2022-11-29T03:46:57.244Z,96997.75
2022-11-29T03:48:33.067Z,97005.88
2022-11-29T03:49:47.685Z,97005.59
2022-11-29T03:50:57.691Z,96997.88
2022-11-29T03:52:21.323Z,97012.69
2022-11-29T03:53:47.244Z,97005.28
2022-11-29T03:55:04.038Z,97006.28
2022-11-29T03:56:23.207Z,96994.56
2022-11-29T03:57:34.921Z,96998.22
2022-11-29T03:58:42.478Z,96995.00
2022-11-29T04:00:05.705Z,97000.19
2022-11-29T04:01:24.920Z,97000.75
2022-11-29T04:02:44.438Z,97003.16
2022-11-29T04:04:23.335Z,96997.31
2022-11-29T04:05:46.527Z,97001.31
2022-11-29T04:07:08.907Z,96996.00
2022-11-29T04:08:37.786Z,96992.66
2022-11-29T04:10:01.191Z,96998.69
2022-11-29T04:11:08.858Z,96992.88
2022-11-29T04:12:40.492Z,96993.00
2022-11-29T04:14:00.563Z,96989.06
2022-11-29T04:15:39.363Z,96989.81
2022-11-29T04:16:43.843Z,96997.31
2022-11-29T04:17:48.217Z,96995.69
2022-11-29T04:19:17.589Z,96986.69
2022-11-29T04:20:54.682Z,96981.53
2022-11-29T04:22:19.845Z,96981.53
2022-11-29T04:23:46.714Z,96986.59
2022-11-29T04:25:13.087Z,96980.00
2022-11-29T04:26:35.029Z,96988.72
2022-11-29T04:27:49.576Z,96981.88
2022-11-29T04:29:15.638Z,96991.41
2022-11-29T04:30:23.654Z,96977.13
2022-11-29T04:32:02.740Z,96984.00
2022-11-29T04:33:23.024Z,96989.59
2022-11-29T04:34:43.727Z,96991.19
2022-11-29T04:36:22.943Z,96990.25
2022-11-29T04:37:45.133Z,96987.38
2022-11-29T04:39:01.678Z,96986.94
2022-11-29T04:40:14.930Z,96978.47
2022-11-29T04:41:55.555Z,96985.56
2022-11-29T04:43:15.727Z,96994.56
2022-11-29T04:44:35.836Z,96998.03
2022-11-29T04:45:40.445Z,96995.69
2022-11-29T04:46:54.828Z,96991.13
2022-11-29T04:48:22.747Z,96989.19
2022-11-29T04:49:56.738Z,96994.19
2022-11-29T04:51:01.213Z,96990.47
2022-11-29T04:52:28.091Z,96995.50
2022-11-29T04:54:04.496Z,96991.03
2022-11-29T04:55:31.230Z,96996.88
2022-11-29T04:56:47.117Z,96992.38
2022-11-29T04:57:57.655Z,96993.72
2022-11-29T04:59:07.819Z,96997.72
2022-11-29T05:00:12.143Z,96995.84
2022-11-29T05:01:41.374Z,96995.25
2022-11-29T05:03:13.597Z,97006.28
2022-11-29T05:04:28.179Z,96999.16
2022-11-29T05:05:35.698Z,97004.25
2022-11-29T05:06:55.989Z,97006.00
2022-11-29T05:08:03.460Z,96997.47
2022-11-29T05:09:33.158Z,96998.69
2022-11-29T05:11:14.368Z,97003.88
2022-11-29T05:12:29.665Z,96998.34
2022-11-29T05:13:54.529Z,96998.25
2022-11-29T05:15:29.989Z,97006.22
2022-11-29T05:17:04.369Z,97002.53
2022-11-29T05:18:10.061Z,97000.91
2022-11-29T05:19:18.142Z,97007.97
2022-11-29T05:20:38.470Z,96999.41
2022-11-29T05:22:28.059Z,96997.63
2022-11-29T05:23:47.955Z,96996.00
2022-11-29T05:25:27.676Z,97001.72
2022-11-29T05:26:31.756Z,96999.78
2022-11-29T05:27:49.283Z,96999.44
2022-11-29T05:29:11.911Z,96995.63
2022-11-29T05:30:20.938Z,96998.72
2022-11-29T05:31:57.819Z,97001.66
2022-11-29T05:33:31.636Z,96995.34
2022-11-29T05:34:52.025Z,96999.06
2022-11-29T05:36:03.380Z,96998.94
2022-11-29T05:37:19.330Z,97003.88
2022-11-29T05:38:45.378Z,97006.16
2022-11-29T05:39:49.526Z,97006.19
2022-11-29T05:41:17.181Z,97012.06
2022-11-29T05:42:32.487Z,97011.16
2022-11-29T05:43:59.858Z,97009.19
2022-11-29T05:45:10.559Z,97006.28
2022-11-29T05:46:27.391Z,97003.78
2022-11-29T05:48:04.657Z,97002.63
2022-11-29T05:49:27.480Z,97000.91
2022-11-29T05:50:37.990Z,97014.56
2022-11-29T05:51:53.768Z,97012.09
2022-11-29T05:53:06.999Z,97001.28
2022-11-29T05:54:36.974Z,96997.31
2022-11-29T05:56:12.612Z,97000.72
2022-11-29T05:57:47.587Z,97004.91
2022-11-29T05:59:12.879Z,97001.94
2022-11-29T06:00:17.499Z,96997.38
2022-11-29T06:01:26.155Z,97008.19
2022-11-29T06:02:27.860Z,97005.22
2022-11-29T06:03:41.874Z,97002.00
2022-11-29T06:05:03.656Z,97005.72
2022-11-29T06:06:35.434Z,97003.53
2022-11-29T06:07:43.064Z,96994.50
2022-11-29T06:08:48.478Z,97003.47
2022-11-29T06:10:17.804Z,97004.47
2022-11-29T06:11:52.184Z,97004.44
2022-11-29T06:13:27.271Z,97006.75
2022-11-29T06:14:50.466Z,97005.94
2022-11-29T06:16:04.177Z,97008.66
2022-11-29T06:17:38.783Z,97006.63
2022-11-29T06:18:55.162Z,97008.19
2022-11-29T06:20:04.344Z,97014.03
2022-11-29T06:21:17.382Z,97007.66
2022-11-29T06:22:21.329Z,97009.66
2022-11-29T06:23:42.956Z,97008.53
2022-11-29T06:25:05.016Z,97001.59
2022-11-29T06:26:13.143Z,97008.22
2022-11-29T06:27:26.679Z,97005.25
2022-11-29T06:29:02.227Z,97016.38
2022-11-29T06:30:13.478Z,97015.31
2022-11-29T06:31:33.940Z,97009.38
2022-11-29T06:32:44.658Z,97015.31
2022-11-29T06:34:04.886Z,97023.88
2022-11-29T06:35:47.592Z,97021.97
2022-11-29T06:37:05.463Z,97019.63
2022-11-29T06:38:28.513Z,97014.41
2022-11-29T06:39:30.338Z,97023.66
2022-11-29T06:40:33.132Z,97014.84
2022-11-29T06:41:35.059Z,97014.78
2022-11-29T06:42:36.594Z,97016.94
2022-11-29T06:43:38.754Z,97021.28
2022-11-29T06:44:40.651Z,97019.22
2022-11-29T06:45:50.237Z,97022.88
2022-11-29T06:46:53.884Z,97020.28
2022-11-29T06:48:03.582Z,97030.19
2022-11-29T06:49:27.916Z,97027.66
2022-11-29T06:50:38.159Z,97032.72
2022-11-29T06:51:58.045Z,97026.38
2022-11-29T06:53:37.877Z,97034.81
2022-11-29T06:55:15.449Z,97029.50
2022-11-29T06:56:55.209Z,97029.47
2022-11-29T06:58:55.310Z,97026.38
2022-11-29T07:00:18.849Z,97037.13
2022-11-29T07:01:31.510Z,97029.63
2022-11-29T07:02:54.188Z,97031.16
2022-11-29T07:04:01.663Z,97028.44
2022-11-29T07:05:18.631Z,97032.38
2022-11-29T07:06:27.356Z,97029.31
2022-11-29T07:07:29.302Z,97029.50
2022-11-29T07:08:31.162Z,97034.75
2022-11-29T07:09:34.642Z,97038.63
2022-11-29T07:10:38.787Z,97034.06
2022-11-29T07:11:40.844Z,97024.59
2022-11-29T07:12:43.000Z,97039.34
2022-11-29T07:13:44.829Z,97036.69
2022-11-29T07:14:52.380Z,97037.94
2022-11-29T07:16:19.910Z,97035.00
2022-11-29T07:17:36.406Z,97038.03
2022-11-29T07:19:07.637Z,97038.47
2022-11-29T07:20:31.307Z,97034.28
2022-11-29T07:21:51.702Z,97038.34
2022-11-29T07:23:02.344Z,97044.84
2022-11-29T07:24:51.057Z,97038.09
2022-11-29T07:26:07.817Z,97044.03
2022-11-29T07:27:32.760Z,97039.84
2022-11-29T07:29:03.764Z,97039.50
2022-11-29T07:30:28.221Z,97039.66
2022-11-29T07:31:48.842Z,97044.25
2022-11-29T07:33:09.101Z,97040.69
2022-11-29T07:34:13.605Z,97033.88
2022-11-29T07:35:30.746Z,97042.97
2022-11-29T07:36:35.344Z,97046.94
2022-11-29T07:37:48.018Z,97035.00
2022-11-29T07:39:10.945Z,97045.44
2022-11-29T07:40:18.218Z,97042.06
2022-11-29T07:41:57.321Z,97051.31
2022-11-29T07:43:17.115Z,97038.25
2022-11-29T07:44:24.598Z,97040.59
2022-11-29T07:45:29.934Z,97041.59
2022-11-29T07:46:31.501Z,97038.41
2022-11-29T07:47:35.999Z,97039.13
2022-11-29T07:48:37.861Z,97040.34
2022-11-29T07:49:39.389Z,97039.78
2022-11-29T07:50:41.341Z,97036.75
2022-11-29T07:51:43.424Z,97035.69
2022-11-29T07:52:44.975Z,97037.88
2022-11-29T07:53:46.755Z,97038.63
2022-11-29T07:54:48.648Z,97040.00
2022-11-29T07:55:50.531Z,97033.97
2022-11-29T07:56:52.118Z,97036.50
2022-11-29T07:57:53.663Z,97037.94
2022-11-29T07:58:55.280Z,97028.41
2022-11-29T07:59:56.790Z,97039.16
2022-11-29T08:00:58.425Z,97038.69
2022-11-29T08:02:00.055Z,97031.38
2022-11-29T08:03:01.709Z,97033.72
2022-11-29T08:04:03.433Z,97036.88
2022-11-29T08:05:05.280Z,97035.94
2022-11-29T08:06:07.006Z,97031.63
2022-11-29T08:07:08.577Z,97037.19
2022-11-29T08:08:10.174Z,97034.75
2022-11-29T08:09:11.838Z,97037.47
2022-11-29T08:10:15.540Z,97040.47
2022-11-29T08:11:17.297Z,97033.84
2022-11-29T08:12:18.853Z,97037.31
2022-11-29T08:13:21.226Z,97038.03
2022-11-29T08:14:22.837Z,97042.47
2022-11-29T08:15:25.485Z,97040.59
2022-11-29T08:16:27.294Z,97049.94
2022-11-29T08:17:28.917Z,97044.69
2022-11-29T08:18:30.516Z,97051.81
2022-11-29T08:19:32.178Z,97053.09
2022-11-29T08:20:33.708Z,97047.50
2022-11-29T08:21:35.222Z,97058.28
2022-11-29T08:22:36.838Z,97049.88
2022-11-29T08:23:38.380Z,97048.59
2022-11-29T08:24:39.988Z,97038.09
2022-11-29T08:25:41.898Z,97046.88
2022-11-29T08:26:43.519Z,97046.78
2022-11-29T08:27:45.060Z,97050.25
2022-11-29T08:28:51.898Z,97045.88
2022-11-29T08:29:53.483Z,97056.41
2022-11-29T08:31:06.326Z,97050.44
2022-11-29T08:32:09.029Z,97045.13
2022-11-29T08:33:10.613Z,97043.72
2022-11-29T08:34:12.655Z,97044.44
2022-11-29T08:35:14.331Z,97044.63
2022-11-29T08:36:20.214Z,97039.69
2022-11-29T08:37:21.880Z,97050.44
2022-11-29T08:38:23.434Z,97040.38
2022-11-29T08:39:25.099Z,97037.28
2022-11-29T08:40:26.733Z,97038.97
2022-11-29T08:41:29.671Z,97037.31
2022-11-29T08:42:31.249Z,97036.72
2022-11-29T08:43:33.131Z,97043.25
2022-11-29T08:44:34.834Z,97035.28
2022-11-29T08:45:36.487Z,97026.66
2022-11-29T08:46:56.758Z,97026.03
2022-11-29T08:47:58.339Z,97024.38
2022-11-29T08:49:00.075Z,97020.72
2022-11-29T08:50:06.243Z,97021.44
2022-11-29T08:51:07.832Z,97027.53
2022-11-29T08:52:27.906Z,97014.06
2022-11-29T08:53:42.105Z,97022.03
2022-11-29T08:54:44.135Z,97019.09
2022-11-29T08:55:46.755Z,97016.19
2022-11-29T08:58:13.297Z,97008.13
2022-11-29T08:59:14.859Z,97014.44
2022-11-29T09:00:17.838Z,97007.34
2022-11-29T09:01:20.315Z,97012.09
2022-11-29T09:02:21.956Z,97009.72
2022-11-29T09:03:42.170Z,97007.66
2022-11-29T09:04:43.853Z,97007.75
2022-11-29T09:05:45.536Z,97010.69
2022-11-29T09:06:49.632Z,97011.06
2022-11-29T09:07:51.297Z,97011.50
2022-11-29T09:08:56.520Z,97013.56
2022-11-29T09:09:58.197Z,97010.31
2022-11-29T09:10:59.900Z,97013.25
2022-11-29T09:12:01.479Z,97013.75
2022-11-29T09:13:03.042Z,97010.81
2022-11-29T09:14:07.549Z,97007.88
2022-11-29T09:15:10.663Z,97014.84
2022-11-29T09:16:15.704Z,97020.56
2022-11-29T09:17:17.217Z,97012.47
2022-11-29T09:18:18.750Z,97007.16
2022-11-29T09:19:20.335Z,97007.03
2022-11-29T09:20:22.013Z,97003.28
2022-11-29T09:21:25.990Z,97002.56
2022-11-29T09:22:27.585Z,97002.56
2022-11-29T09:23:29.213Z,96999.13
2022-11-29T09:24:30.929Z,97001.22
2022-11-29T09:25:32.478Z,96996.06
2022-11-29T09:26:36.907Z,96992.84
2022-11-29T09:27:38.505Z,96997.91
2022-11-29T09:28:40.059Z,96992.75
2022-11-29T09:29:41.639Z,96990.31
2022-11-29T09:30:43.209Z,96993.94
2022-11-29T09:31:45.338Z,96994.94
2022-11-29T09:32:47.385Z,96996.50
2022-11-29T09:33:49.123Z,96986.56
2022-11-29T09:34:50.741Z,96991.59
2022-11-29T09:35:58.062Z,96997.25
2022-11-29T09:36:59.626Z,96989.00
2022-11-29T09:38:01.298Z,96991.72
2022-11-29T09:39:03.400Z,96988.94
2022-11-29T09:40:05.625Z,96990.38
2022-11-29T09:41:37.833Z,96978.16
2022-11-29T09:42:55.646Z,96980.47
2022-11-29T09:44:15.915Z,96980.75
2022-11-29T09:45:20.809Z,96974.50
2022-11-29T09:46:22.317Z,96973.47
2022-11-29T09:47:26.918Z,96971.03
2022-11-29T09:48:47.232Z,96968.13
2022-11-29T09:50:10.532Z,96972.25
2022-11-29T09:51:15.425Z,96978.38
2022-11-29T09:52:42.955Z,96963.44
2022-11-29T09:54:21.195Z,96961.19
2022-11-29T09:55:37.850Z,96959.47
2022-11-29T09:56:44.512Z,96957.31
2022-11-29T09:57:48.118Z,96958.00
2022-11-29T09:58:57.886Z,96963.59
2022-11-29T10:00:05.047Z,96954.78
2022-11-29T10:01:10.848Z,96960.09
2022-11-29T10:02:22.365Z,96955.72
2022-11-29T10:03:30.329Z,96951.63
2022-11-29T10:04:41.043Z,96961.06
2022-11-29T10:05:53.868Z,96948.13
2022-11-29T10:07:14.651Z,96952.78
2022-11-29T10:08:27.484Z,96956.38
2022-11-29T10:09:37.882Z,96949.19
2022-11-29T10:10:50.902Z,96952.50
2022-11-29T10:11:55.249Z,96947.16
2022-11-29T10:13:05.082Z,96949.19
2022-11-29T10:14:16.429Z,96943.19
2022-11-29T10:15:27.413Z,96956.53
2022-11-29T10:16:43.815Z,96950.41
2022-11-29T10:18:27.327Z,96951.53
2022-11-29T10:19:41.865Z,96943.66
2022-11-29T10:20:49.061Z,96946.97
2022-11-29T10:22:03.597Z,96949.34
2022-11-29T10:23:26.601Z,96944.56
2022-11-29T10:24:29.529Z,96950.28
2022-11-29T10:25:37.683Z,96945.06
2022-11-29T10:26:39.333Z,96948.50
2022-11-29T10:27:40.938Z,96957.59
2022-11-29T10:28:47.678Z,96943.97
2022-11-29T10:29:51.325Z,96950.13
2022-11-29T10:30:58.476Z,96941.81
2022-11-29T10:32:10.016Z,96937.16
2022-11-29T10:33:28.947Z,96934.91
2022-11-29T10:34:30.936Z,96928.91
2022-11-29T10:35:33.572Z,96933.25
2022-11-29T10:36:48.419Z,96933.38
2022-11-29T10:38:28.555Z,96927.09
2022-11-29T10:39:42.373Z,96940.38
2022-11-29T10:40:47.611Z,96923.28
2022-11-29T10:41:56.678Z,96934.00
2022-11-29T10:42:58.561Z,96930.91
2022-11-29T10:44:00.488Z,96929.88
2022-11-29T10:45:02.995Z,96927.84
2022-11-29T10:46:06.512Z,96923.63
2022-11-29T10:47:11.088Z,96933.34
2022-11-29T10:48:16.966Z,96926.31
2022-11-29T10:49:21.787Z,96925.03
2022-11-29T10:50:28.976Z,96925.97
2022-11-29T10:51:32.041Z,96925.34
2022-11-29T10:52:34.028Z,96930.38
2022-11-29T10:53:38.537Z,96921.41
2022-11-29T10:54:44.471Z,96919.09
2022-11-29T10:55:46.187Z,96912.94
2022-11-29T10:56:48.466Z,96910.59
2022-11-29T10:58:13.682Z,96906.81
2022-11-29T10:59:23.520Z,96908.22
2022-11-29T11:00:25.650Z,96907.28
2022-11-29T11:01:29.129Z,96912.78
2022-11-29T11:02:31.823Z,96913.72
2022-11-29T11:03:52.842Z,96908.53
2022-11-29T11:04:54.874Z,96917.97
2022-11-29T11:06:07.137Z,96905.19
2022-11-29T11:07:23.052Z,96906.44
2022-11-29T11:08:26.369Z,96908.31
2022-11-29T11:09:34.296Z,96901.72
2022-11-29T11:10:35.960Z,96897.63
2022-11-29T11:11:38.688Z,96903.13
2022-11-29T11:12:40.342Z,96902.31
2022-11-29T11:13:42.242Z,96905.19
2022-11-29T11:14:45.427Z,96904.94
2022-11-29T11:15:47.244Z,96906.34
2022-11-29T11:16:49.033Z,96907.13
2022-11-29T11:17:59.882Z,96900.03
2022-11-29T11:19:27.649Z,96906.16
2022-11-29T11:20:31.738Z,96906.31
2022-11-29T11:21:38.605Z,96913.59
2022-11-29T11:22:41.201Z,96904.78
2022-11-29T11:23:46.818Z,96907.28
2022-11-29T11:24:57.369Z,96899.09
2022-11-29T11:26:03.053Z,96901.59
2022-11-29T11:27:04.711Z,96886.31
2022-11-29T11:28:15.400Z,96890.47
2022-11-29T11:29:25.075Z,96894.56
2022-11-29T11:30:29.444Z,96898.31
2022-11-29T11:31:34.780Z,96897.41
2022-11-29T11:32:37.042Z,96906.19
2022-11-29T11:33:41.517Z,96908.41
2022-11-29T11:34:52.672Z,96897.38
2022-11-29T11:36:01.581Z,96903.34
2022-11-29T11:37:15.486Z,96898.19
2022-11-29T11:38:17.834Z,96895.19
2022-11-29T11:39:22.072Z,96896.75
2022-11-29T11:40:29.810Z,96892.66
2022-11-29T11:41:49.936Z,96896.44
2022-11-29T11:42:51.649Z,96895.81
2022-11-29T11:43:58.526Z,96895.03
2022-11-29T11:45:01.252Z,96887.81
2022-11-29T11:46:03.015Z,96889.84
2022-11-29T11:47:24.309Z,96888.25
2022-11-29T11:48:27.490Z,96886.06
2022-11-29T11:50:08.128Z,96889.22
2022-11-29T11:51:24.474Z,96888.25
2022-11-29T11:52:39.793Z,96886.06
2022-11-29T11:53:44.228Z,96882.31
2022-11-29T11:54:51.332Z,96885.44
2022-11-29T11:56:03.807Z,96880.44
2022-11-29T11:57:15.544Z,96878.03
2022-11-29T11:58:22.034Z,96877.25
2022-11-29T11:59:26.665Z,96879.47
2022-11-29T12:01:20.542Z,96884.66
2022-11-29T12:02:35.891Z,96877.75
2022-11-29T12:03:59.188Z,96881.22
2022-11-29T12:05:02.869Z,96877.75
2022-11-29T12:06:38.358Z,96867.84
2022-11-29T12:08:09.856Z,96867.22
2022-11-29T12:09:26.268Z,96865.50
2022-11-29T12:10:31.847Z,96865.97
2022-11-29T12:11:50.498Z,96866.09
2022-11-29T12:12:53.620Z,96868.94
2022-11-29T12:13:59.227Z,96865.50
2022-11-29T12:15:24.852Z,96867.38
2022-11-29T12:16:34.297Z,96865.66
2022-11-29T12:17:49.977Z,96859.38
2022-11-29T12:18:57.270Z,96861.56
2022-11-29T12:20:17.803Z,96864.22
2022-11-29T12:21:27.547Z,96850.56
2022-11-29T12:22:37.660Z,96850.09
2022-11-29T12:24:12.946Z,96855.88
2022-11-29T12:25:22.085Z,96851.34
2022-11-29T12:27:52.383Z,96850.72
2022-11-29T12:28:54.134Z,96853.56
2022-11-29T12:29:56.767Z,96853.53
2022-11-29T12:31:44.663Z,96852.63
2022-11-29T12:33:00.085Z,96855.91
2022-11-29T12:34:22.628Z,96855.91
2022-11-29T12:35:37.514Z,96842.06
2022-11-29T12:37:05.631Z,96854.63
2022-11-29T12:38:34.000Z,96849.16
2022-11-29T12:39:43.331Z,96852.13
2022-11-29T12:41:07.091Z,96843.47
2022-11-29T12:42:39.470Z,96846.16
2022-11-29T12:44:05.267Z,96843.94
2022-11-29T12:45:40.145Z,96847.56
2022-11-29T12:46:54.377Z,96854.97
2022-11-29T12:48:06.614Z,96843.47
2022-11-29T12:49:34.443Z,96848.38
2022-11-29T12:51:06.754Z,96851.81
2022-11-29T12:52:34.671Z,96847.72
2022-11-29T12:54:33.145Z,96848.66
2022-11-29T12:55:46.417Z,96845.19
2022-11-29T12:57:13.457Z,96842.63
2022-11-29T12:58:45.612Z,96850.97
2022-11-29T13:00:03.579Z,96844.19
2022-11-29T13:01:21.935Z,96843.28
2022-11-29T13:02:35.418Z,96847.03
2022-11-29T13:03:47.307Z,96853.03
2022-11-29T13:05:01.560Z,96854.91
2022-11-29T13:06:29.623Z,96847.38
2022-11-29T13:08:07.998Z,96853.53
2022-11-29T13:09:27.014Z,96852.47
2022-11-29T13:10:49.651Z,96854.03
2022-11-29T13:11:54.219Z,96849.81
2022-11-29T13:13:03.517Z,96845.38
2022-11-29T13:14:40.999Z,96858.09
2022-11-29T13:15:43.251Z,96850.56
2022-11-29T13:17:02.755Z,96855.13
2022-11-29T13:18:31.319Z,96843.50
2022-11-29T13:19:44.785Z,96851.19
2022-11-29T13:20:57.274Z,96856.09
2022-11-29T13:22:20.175Z,96853.72
2022-11-29T13:24:07.948Z,96857.16
2022-11-29T13:25:21.322Z,96853.41
2022-11-29T13:26:26.204Z,96848.06
2022-11-29T13:27:32.918Z,96851.50
2022-11-29T13:28:37.327Z,96852.75
2022-11-29T13:29:38.958Z,96847.41
2022-11-29T13:30:40.870Z,96844.91
2022-11-29T13:31:44.023Z,96850.09
2022-11-29T13:33:12.101Z,96852.91
2022-11-29T13:34:17.126Z,96852.47
2022-11-29T13:35:25.417Z,96854.66
2022-11-29T13:36:39.056Z,96847.72
2022-11-29T13:37:55.181Z,96850.25
2022-11-29T13:39:08.849Z,96847.72
2022-11-29T13:40:30.557Z,96853.72
2022-11-29T13:41:45.739Z,96853.06
2022-11-29T13:43:03.082Z,96852.75
2022-11-29T13:44:16.042Z,96846.78
2022-11-29T13:45:40.256Z,96849.63
2022-11-29T13:46:41.840Z,96854.16
2022-11-29T13:48:27.601Z,96850.25
2022-11-29T13:49:51.195Z,96858.41
2022-11-29T13:50:52.863Z,96845.06
2022-11-29T13:52:06.262Z,96844.72
2022-11-29T13:53:23.603Z,96846.47
2022-11-29T13:54:27.922Z,96843.47
2022-11-29T13:55:31.196Z,96837.50
2022-11-29T13:56:46.422Z,96842.66
2022-11-29T13:58:15.067Z,96847.38
2022-11-29T13:59:22.574Z,96845.19
2022-11-29T14:00:34.669Z,96843.13
2022-11-29T14:01:56.675Z,96839.50
2022-11-29T14:03:23.892Z,96841.72
2022-11-29T14:04:39.169Z,96845.31
2022-11-29T14:05:41.311Z,96848.28
2022-11-29T14:06:43.170Z,96846.69
2022-11-29T14:08:54.578Z,96847.34
2022-11-29T14:10:02.275Z,96844.97
2022-11-29T14:11:06.651Z,96846.38